Airfield :
LOGIN :

Register | Disclaimer

   EN    FR    IT 

 










Legend :    VFR   Marginal VFR   IFR   Intensive IFR   Very Intensive IFR
Visi :
Ceiling :
>= 8 km
>= 3000ft
5 to 8 km
1000 to 3000 ft
1500m to 5 km
500 to 1000 ft
800 to 1500m
200 to 500 ft
< 800m
< 200 ft
Symbols :   Thunderstorms  Fog  Heavy snow  Heavy precipitations  Wind > 20 kt
SIGMETs :     Misc.  Thunderstorms  Icing  Turbulence  Mountain Waves  Volcanic Ashes






- Airport Elevation : 297 ft
- IATA code : UIP


LFRQ - Quimper Pluguffan

CURRENT METAR :
  • 200800Z AUTO 01007KT 340V040 9999 FEW032 OVC084 13/10 Q1020 NOSIG

EXPIRED METARs :
  • 200730Z AUTO 33012KT 9999 -RA NSC 13/10 Q1020 NOSIG
  • 200700Z AUTO 33010KT 9999 -RA NSC 13/09 Q1020 TEMPO 4500 -SHRA SCT040TCU
  • 200630Z AUTO 32009KT CAVOK 14/09 Q1020 TEMPO 4500 -SHRA SCT040TCU
  • 200600Z AUTO 32010KT CAVOK 14/10 Q1020 TEMPO 4500 -SHRA SCT040TCU
  • 200530Z AUTO 31008KT CAVOK 14/10 Q1020 TEMPO 4500 -SHRA SCT040TCU
  • 200500Z AUTO 31009KT CAVOK 13/10 Q1019

TAF TAF LFRQ
Valid from the 20 at 06:00 until the 21 at 06:00 UTC


200500Z 2006/2106 32006KT CAVOK
TEMPO 2006/2008 32010KT 4500 -SHRA SCT040TCU
BECMG 2010/2012 26012KT
BECMG 2018/2020 29005KT
BECMG 2020/2022 BKN012
TEMPO 2100/2106 BKN006



MET'MAP, your aeronautical weather chart ! - Copyright ORBIFLY December 2007 - Disclaimer

ORBIFLY MET'MAP TEAM :

Programming & Development : Alexandra Zaïnal
Original concept : Baudouin d'Aumeries
Technical & hardware support : Manuel Goepfert
Assistance : Marc-Olivier Méhu

Contact : metmap@orbifly.com




SOURCES & CREDITS :

   NOAA